Terminal Aerodrome Forecast
Issued by NWS

Home | Current Version | Previous Version | Text Only | Print | Product List | Glossary On
Versions: 1 2 3 4 5 6 7 8 9 10 11 12 13 14 15 16
700
FTUS43 KMQT 052320
TAFSAW
TAF
KSAW 052320Z 0600/0624 20009KT P6SM BKN070
     FM060900 23007KT P6SM BKN028
     FM061400 25006KT P6SM BKN045
     FM062000 23007KT P6SM OVC030
     FM062300 17004KT P6SM VCSH OVC022=

USA.gov is the U.S. government's official web portal to all federal, state and local government web resources and services.